createdAt,value
2023-03-16T00:02:43.051Z,3.38
2023-03-16T00:22:44.576Z,4.75
2023-03-16T00:42:46.133Z,5.50
2023-03-16T01:02:47.749Z,5.55
2023-03-16T01:22:49.309Z,5.80
2023-03-16T01:42:51.087Z,5.78
2023-03-16T02:02:53.768Z,6.22
2023-03-16T02:23:01.994Z,7.28
2023-03-16T02:43:03.799Z,6.93
2023-03-16T03:03:25.188Z,7.40
2023-03-16T03:23:45.739Z,7.00
2023-03-16T03:44:05.712Z,9.35
2023-03-16T04:04:26.282Z,9.75
2023-03-16T04:24:46.138Z,9.98
2023-03-16T04:45:06.631Z,9.57
2023-03-16T05:05:08.351Z,9.05
2023-03-16T05:25:15.984Z,11.10
2023-03-16T05:45:21.284Z,10.13
2023-03-16T06:05:48.325Z,8.32
2023-03-16T06:25:58.360Z,9.63
2023-03-16T06:46:18.896Z,8.20
2023-03-16T07:06:39.548Z,8.70
2023-03-16T07:26:59.718Z,10.00
2023-03-16T07:47:19.629Z,11.20
2023-03-16T08:07:39.473Z,9.15
2023-03-16T08:27:59.574Z,8.65
2023-03-16T08:48:01.445Z,9.15
2023-03-16T09:08:05.101Z,8.70
2023-03-16T09:28:07.045Z,6.20
2023-03-16T09:48:08.646Z,5.95
2023-03-16T10:08:10.283Z,3.17
2023-03-16T10:28:11.869Z,3.22
2023-03-16T10:48:13.558Z,3.15
2023-03-16T11:08:15.192Z,2.95
2023-03-16T11:28:17.056Z,3.40
2023-03-16T11:48:18.562Z,2.80
2023-03-16T12:08:20.451Z,1.85
2023-03-16T12:28:23.354Z,2.42
2023-03-16T12:48:25.200Z,2.10
2023-03-16T13:08:26.685Z,2.78
2023-03-16T13:28:28.294Z,2.80
2023-03-16T13:48:48.394Z,2.67
2023-03-16T14:09:08.518Z,2.50
2023-03-16T14:29:28.602Z,3.20
2023-03-16T14:49:49.219Z,2.92
2023-03-16T15:10:08.897Z,2.55
2023-03-16T15:30:29.363Z,3.05
2023-03-16T15:50:31.027Z,3.47
2023-03-16T16:10:32.613Z,2.67
2023-03-16T16:30:34.235Z,3.00
2023-03-16T16:50:36.458Z,3.58
2023-03-16T17:10:37.971Z,6.15
2023-03-16T17:30:40.492Z,5.15
2023-03-16T17:50:42.038Z,6.18
2023-03-16T18:10:43.622Z,5.05
2023-03-16T18:30:46.774Z,5.30
2023-03-16T18:50:48.750Z,4.47
2023-03-16T19:10:50.312Z,5.10
2023-03-16T19:30:51.875Z,5.40
2023-03-16T19:50:53.792Z,4.78
2023-03-16T20:10:55.222Z,4.82
2023-03-16T20:30:57.866Z,3.47
2023-03-16T20:50:59.632Z,5.63
2023-03-16T21:11:01.287Z,4.90
2023-03-16T21:31:03.089Z,4.25
2023-03-16T21:51:04.785Z,4.03
2023-03-16T22:11:06.268Z,4.75
2023-03-16T22:31:08.048Z,3.55
2023-03-16T22:51:09.731Z,3.38
2023-03-16T23:11:11.495Z,3.70
2023-03-16T23:31:12.917Z,4.18
2023-03-16T23:51:14.747Z,3.30
